Time;durP1;ratioP1;P1;durP2;ratioP2;P2;SDS_P1;SDS_P2;PMS_P1;PMS_P2;Temp;Humidity;BMP_temperature;BMP_pressure;BME280_temperature;BME280_humidity;BME280_pressure;Samples;Min_cycle;Max_cycle;Signal;HPM_P1;HPM_P2
2022/03/27 00:00:59;;;;;;;8.77;5.30;;;13.60;85.40;;;;;;5078379;28;20498;-94
2022/03/27 00:03:25;;;;;;;7.35;5.53;;;13.60;85.70;;;;;;5077867;28;20048;-94
2022/03/27 00:05:51;;;;;;;8.25;5.47;;;13.50;86.00;;;;;;5078329;28;20028;-94
2022/03/27 00:08:19;;;;;;;9.80;6.10;;;13.50;86.40;;;;;;5078691;28;20020;-94
2022/03/27 00:13:32;;;;;;;8.73;5.88;;;13.50;87.10;;;;;;5079577;28;20047;-94
2022/03/27 00:15:57;;;;;;;9.43;5.57;;;13.40;87.30;;;;;;5078742;28;20036;-93
2022/03/27 00:18:23;;;;;;;7.13;5.30;;;13.40;87.60;;;;;;5061409;28;20028;-92
2022/03/27 00:20:51;;;;;;;7.63;5.20;;;13.30;87.90;;;;;;5078941;28;20050;-93
2022/03/27 00:23:19;;;;;;;7.78;5.32;;;13.30;88.10;;;;;;5078458;28;20020;-92
2022/03/27 00:25:45;;;;;;;11.20;6.00;;;13.30;88.30;;;;;;5078847;28;20020;-94
2022/03/27 00:28:11;;;;;;;8.65;5.35;;;13.30;88.50;;;;;;5078343;28;20016;-93
2022/03/27 00:30:38;;;;;;;8.45;5.53;;;13.20;88.70;;;;;;5079310;28;20453;-93
2022/03/27 00:33:08;;;;;;;8.02;5.85;;;13.20;89.10;;;;;;5078017;28;20038;-92
2022/03/27 00:35:33;;;;;;;11.20;6.20;;;13.20;89.60;;;;;;5062644;28;20021;-92
2022/03/27 00:38:01;;;;;;;7.70;5.68;;;13.20;89.80;;;;;;5078471;28;20035;-93
2022/03/27 00:40:27;;;;;;;7.88;5.97;;;13.20;90.00;;;;;;5078801;28;20032;-92
2022/03/27 00:42:55;;;;;;;7.85;6.20;;;13.10;90.10;;;;;;5079802;28;20171;-93
2022/03/27 00:45:21;;;;;;;8.48;6.38;;;13.10;90.30;;;;;;5061998;28;20119;-92
2022/03/27 00:47:47;;;;;;;8.57;5.82;;;13.10;90.40;;;;;;5078521;28;20056;-92
2022/03/27 00:50:15;;;;;;;9.30;6.30;;;13.10;90.50;;;;;;5079623;28;20016;-92
2022/03/27 00:52:41;;;;;;;12.57;6.30;;;13.10;90.50;;;;;;5089880;28;20036;-92
2022/03/27 00:55:07;;;;;;;7.90;5.82;;;13.10;90.60;;;;;;5094595;28;20028;-94
2022/03/27 00:57:33;;;;;;;7.50;6.18;;;13.00;90.60;;;;;;5095985;28;20047;-93
2022/03/27 00:59:58;;;;;;;8.45;6.55;;;13.00;90.60;;;;;;5094419;28;20044;-92
2022/03/27 01:02:25;;;;;;;8.95;6.70;;;13.00;90.70;;;;;;5077197;28;20051;-93
2022/03/27 01:04:57;;;;;;;9.35;6.05;;;13.00;90.80;;;;;;5098947;28;20078;-91
2022/03/27 01:07:23;;;;;;;8.93;6.70;;;13.00;90.80;;;;;;5080358;28;20074;-94
2022/03/27 01:09:49;;;;;;;9.73;6.70;;;13.00;90.90;;;;;;5060722;28;20028;-92
2022/03/27 01:12:18;;;;;;;9.18;6.75;;;13.00;91.00;;;;;;5075291;28;20017;-93
2022/03/27 01:14:44;;;;;;;9.15;7.45;;;12.90;91.00;;;;;;5076815;28;20027;-93
2022/03/27 01:17:13;;;;;;;9.07;7.05;;;12.90;91.10;;;;;;5077697;28;20058;-94
2022/03/27 01:19:41;;;;;;;11.00;7.65;;;12.90;91.20;;;;;;5077064;28;20400;-92
2022/03/27 01:22:10;;;;;;;11.43;8.25;;;12.90;91.20;;;;;;5076239;28;20073;-91
2022/03/27 01:24:36;;;;;;;9.48;7.82;;;12.90;91.40;;;;;;5076514;28;20013;-92
2022/03/27 01:27:05;;;;;;;10.80;8.40;;;12.80;91.40;;;;;;5075833;28;20029;-93
2022/03/27 01:29:31;;;;;;;10.43;8.80;;;12.80;91.50;;;;;;5076778;28;20021;-93
2022/03/27 01:31:58;;;;;;;11.27;8.98;;;12.80;91.40;;;;;;5077112;28;20461;-92
2022/03/27 01:34:24;;;;;;;12.93;9.38;;;12.80;91.40;;;;;;5076561;28;20032;-92
2022/03/27 01:36:50;;;;;;;14.50;9.43;;;12.80;91.40;;;;;;5076334;28;20037;-92
2022/03/27 01:39:16;;;;;;;11.32;9.10;;;12.70;91.60;;;;;;5076269;28;20017;-92
2022/03/27 01:41:43;;;;;;;12.18;9.80;;;12.70;91.70;;;;;;5076858;28;20029;-92
2022/03/27 01:44:12;;;;;;;13.15;9.95;;;12.70;91.80;;;;;;5075867;28;20056;-92
2022/03/27 01:46:40;;;;;;;11.82;9.90;;;12.70;91.80;;;;;;5076086;28;20495;-93
2022/03/27 01:49:08;;;;;;;11.85;10.30;;;12.60;91.90;;;;;;5077059;28;20137;-91
2022/03/27 01:51:36;;;;;;;11.75;9.65;;;12.60;92.00;;;;;;5077633;28;20120;-92
2022/03/27 01:54:03;;;;;;;10.75;9.45;;;12.60;92.20;;;;;;5076002;28;20059;-92
2022/03/27 01:56:29;;;;;;;14.20;10.85;;;12.60;92.20;;;;;;5059027;28;20048;-91
2022/03/27 01:59:02;;;;;;;12.13;10.18;;;12.60;92.20;;;;;;5075363;28;20570;-91
2022/03/27 02:01:27;;;;;;;13.90;10.57;;;12.50;92.30;;;;;;5076250;28;20025;-93
2022/03/27 02:03:54;;;;;;;12.50;10.30;;;12.50;92.30;;;;;;5076021;28;20522;-92
2022/03/27 02:06:23;;;;;;;12.27;10.05;;;12.50;92.40;;;;;;5076939;28;20103;-91
2022/03/27 02:08:50;;;;;;;14.23;9.77;;;12.50;92.50;;;;;;5059145;28;20052;-92
2022/03/27 02:11:16;;;;;;;12.38;9.60;;;12.50;92.60;;;;;;5075581;28;20453;-92
2022/03/27 02:13:42;;;;;;;11.18;9.38;;;12.50;92.70;;;;;;5076504;28;20107;-92
2022/03/27 02:16:08;;;;;;;12.90;9.30;;;12.50;92.60;;;;;;5079362;28;20036;-92
2022/03/27 02:18:34;;;;;;;12.32;9.02;;;12.50;92.70;;;;;;5086487;28;20016;-92
2022/03/27 02:21:03;;;;;;;13.45;9.77;;;12.40;92.80;;;;;;5096013;28;20055;-92
2022/03/27 02:23:29;;;;;;;11.65;9.30;;;12.40;92.90;;;;;;5094786;28;20025;-92
2022/03/27 02:25:55;;;;;;;10.50;8.55;;;12.40;92.90;;;;;;5078851;28;20021;-94
2022/03/27 02:28:22;;;;;;;13.40;8.98;;;12.40;93.20;;;;;;5075791;28;20025;-93
2022/03/27 02:30:48;;;;;;;11.43;8.27;;;12.40;92.70;;;;;;5076339;28;20020;-91
2022/03/27 02:33:14;;;;;;;11.40;8.77;;;12.30;92.60;;;;;;5075252;28;20025;-91
2022/03/27 02:35:40;;;;;;;10.98;8.50;;;12.30;92.90;;;;;;5075404;28;20047;-91
2022/03/27 02:38:07;;;;;;;11.10;9.13;;;12.20;93.00;;;;;;5075484;28;20041;-92
2022/03/27 02:40:37;;;;;;;10.88;9.35;;;12.20;93.30;;;;;;5075670;28;20115;-91
2022/03/27 02:43:05;;;;;;;11.05;9.32;;;12.20;92.90;;;;;;5075239;28;20033;-92
2022/03/27 02:45:32;;;;;;;13.65;9.80;;;12.10;93.10;;;;;;5075310;28;20406;-91
2022/03/27 02:48:08;;;;;;;11.10;9.35;;;12.10;93.10;;;;;;5058803;28;20033;-92
2022/03/27 02:50:38;;;;;;;12.93;9.55;;;12.10;93.30;;;;;;5058526;28;20029;-92
2022/03/27 02:53:05;;;;;;;11.43;9.32;;;12.10;93.60;;;;;;5075087;28;20069;-93
2022/03/27 02:55:30;;;;;;;10.88;8.73;;;12.10;93.30;;;;;;5074983;28;20024;-91
2022/03/27 02:57:56;;;;;;;10.68;8.90;;;12.00;93.10;;;;;;5075025;28;20082;-92
2022/03/27 03:00:23;;;;;;;10.75;8.68;;;12.00;93.10;;;;;;5058817;28;20028;-91
2022/03/27 03:02:50;;;;;;;12.32;9.35;;;12.00;93.30;;;;;;5058819;28;20033;-92
2022/03/27 03:05:17;;;;;;;11.70;9.13;;;12.00;93.50;;;;;;5074905;28;20028;-92
2022/03/27 03:07:43;;;;;;;12.18;9.82;;;11.90;93.50;;;;;;5076349;28;20031;-93
2022/03/27 03:10:10;;;;;;;12.98;10.23;;;11.90;93.60;;;;;;5075000;28;20036;-93
2022/03/27 03:12:36;;;;;;;14.57;9.80;;;11.90;93.60;;;;;;5076114;28;20253;-92
2022/03/27 03:15:03;;;;;;;15.23;9.43;;;11.90;93.80;;;;;;5074620;28;20032;-92
2022/03/27 03:17:29;;;;;;;11.98;8.90;;;11.90;93.90;;;;;;5074348;28;20036;-91
2022/03/27 03:19:57;;;;;;;14.05;8.75;;;11.90;93.80;;;;;;5075209;28;20185;-92
2022/03/27 03:22:23;;;;;;;12.73;9.10;;;11.80;93.70;;;;;;5074412;28;20082;-92
2022/03/27 03:24:50;;;;;;;16.15;10.60;;;11.80;93.20;;;;;;5074702;28;20032;-92
2022/03/27 03:27:19;;;;;;;17.35;11.05;;;11.70;93.00;;;;;;5074383;28;20029;-92
2022/03/27 03:29:45;;;;;;;15.63;10.48;;;11.60;93.10;;;;;;5074618;28;20407;-93
2022/03/27 03:32:11;;;;;;;16.40;10.98;;;11.50;93.20;;;;;;5075454;28;20039;-92
2022/03/27 03:34:36;;;;;;;15.85;11.35;;;11.50;93.30;;;;;;5074982;28;20017;-93
2022/03/27 03:37:05;;;;;;;17.02;10.70;;;11.40;93.50;;;;;;5078059;28;20384;-91
2022/03/27 03:39:30;;;;;;;16.10;10.57;;;11.40;93.70;;;;;;5078248;28;20028;-91
2022/03/27 03:41:57;;;;;;;17.15;10.45;;;11.30;93.90;;;;;;5078882;28;20055;-91
2022/03/27 03:44:27;;;;;;;15.57;10.48;;;11.30;94.00;;;;;;5078238;28;20029;-92
2022/03/27 03:46:54;;;;;;;17.38;11.05;;;11.30;94.20;;;;;;5080000;28;20457;-91
2022/03/27 03:49:20;;;;;;;16.42;10.98;;;11.30;94.30;;;;;;5078945;28;20024;-90
2022/03/27 03:51:46;;;;;;;19.27;12.18;;;11.30;94.40;;;;;;5061895;28;20021;-93
2022/03/27 03:54:13;;;;;;;21.67;13.02;;;11.20;94.70;;;;;;5078620;28;20021;-93
2022/03/27 03:56:41;;;;;;;23.50;13.45;;;11.30;94.40;;;;;;5078375;28;20032;-93
2022/03/27 03:59:10;;;;;;;22.48;13.68;;;11.20;94.50;;;;;;5061359;28;20048;-92
2022/03/27 04:01:35;;;;;;;23.20;13.60;;;11.20;94.50;;;;;;5078223;28;20143;-91
2022/03/27 04:04:01;;;;;;;23.48;15.18;;;11.30;94.70;;;;;;5078693;28;20068;-91
2022/03/27 04:06:33;;;;;;;23.90;14.07;;;11.30;94.70;;;;;;5079486;28;20382;-92
2022/03/27 04:08:59;;;;;;;24.75;14.13;;;11.20;94.80;;;;;;5061457;28;20028;-92
2022/03/27 04:11:25;;;;;;;21.13;13.50;;;11.30;94.80;;;;;;5060622;28;20085;-91
2022/03/27 04:13:50;;;;;;;20.98;12.70;;;11.20;94.90;;;;;;5078151;28;20031;-92
2022/03/27 04:16:16;;;;;;;23.75;14.00;;;11.20;94.90;;;;;;5078192;28;20074;-92
2022/03/27 04:18:42;;;;;;;23.20;14.20;;;11.20;94.90;;;;;;5078094;28;20419;-92
2022/03/27 04:21:11;;;;;;;23.98;14.82;;;11.20;94.90;;;;;;5078563;28;20029;-92
2022/03/27 04:23:44;;;;;;;21.20;13.30;;;11.20;95.00;;;;;;5077926;28;20025;-92
2022/03/27 04:26:10;;;;;;;22.23;13.80;;;11.20;95.00;;;;;;5061766;28;20526;-91
2022/03/27 04:28:36;;;;;;;23.30;14.25;;;11.20;95.10;;;;;;5061376;28;20024;-92
2022/03/27 04:31:01;;;;;;;20.30;13.05;;;11.20;95.20;;;;;;5078859;28;20028;-92
2022/03/27 04:33:36;;;;;;;20.95;13.20;;;11.20;95.20;;;;;;5092769;28;20080;-91
2022/03/27 04:36:06;;;;;;;20.50;12.95;;;11.10;95.10;;;;;;5094348;28;20055;-92
2022/03/27 04:38:32;;;;;;;21.33;13.27;;;11.10;94.90;;;;;;5094417;28;20059;-91
2022/03/27 04:41:01;;;;;;;20.27;12.40;;;11.10;95.00;;;;;;5092737;28;20036;-91
2022/03/27 04:43:28;;;;;;;19.35;12.77;;;11.10;95.00;;;;;;5092225;28;20023;-90
2022/03/27 04:45:54;;;;;;;19.02;12.77;;;11.10;95.10;;;;;;5091595;28;20031;-90
2022/03/27 04:48:19;;;;;;;18.90;12.07;;;11.00;95.00;;;;;;5087168;28;20076;-92
2022/03/27 04:50:45;;;;;;;18.65;12.23;;;11.00;95.00;;;;;;5078246;28;20017;-90
2022/03/27 04:53:11;;;;;;;17.25;12.05;;;11.00;95.00;;;;;;5077329;28;20046;-92
2022/03/27 04:55:37;;;;;;;17.10;11.32;;;11.00;95.00;;;;;;5076479;28;20021;-91
2022/03/27 04:58:07;;;;;;;19.95;12.32;;;10.90;95.00;;;;;;5076536;28;20056;-90
2022/03/27 05:00:33;;;;;;;17.43;11.23;;;11.00;95.00;;;;;;5076435;28;20024;-91
2022/03/27 05:02:59;;;;;;;15.40;11.38;;;10.90;94.90;;;;;;5076597;28;20044;-92
2022/03/27 05:05:24;;;;;;;16.92;11.43;;;10.90;94.80;;;;;;5076141;28;20021;-91
2022/03/27 05:07:50;;;;;;;17.90;11.57;;;10.90;94.70;;;;;;5076240;28;20362;-91
2022/03/27 05:10:16;;;;;;;17.65;11.30;;;10.90;94.60;;;;;;5076708;28;20124;-91
2022/03/27 05:12:42;;;;;;;15.63;11.10;;;10.90;94.30;;;;;;5077281;28;20104;-92
2022/03/27 05:15:09;;;;;;;15.73;10.77;;;10.80;94.40;;;;;;5076905;28;20048;-92
2022/03/27 05:17:55;;;;;;;16.80;11.48;;;10.80;94.30;;;;;;5076359;28;20028;-92
2022/03/27 05:20:21;;;;;;;14.93;10.57;;;10.70;94.10;;;;;;5077110;28;20031;-92
2022/03/27 05:22:47;;;;;;;16.77;10.45;;;10.70;94.00;;;;;;5077472;28;20120;-93
2022/03/27 05:25:15;;;;;;;18.70;11.20;;;10.70;94.10;;;;;;5082901;28;20036;-92
2022/03/27 05:27:53;;;;;;;15.30;10.18;;;10.60;94.00;;;;;;5093871;28;20025;-92
2022/03/27 05:30:21;;;;;;;16.10;10.68;;;10.60;94.00;;;;;;5091583;28;20020;-92
2022/03/27 05:32:48;;;;;;;16.60;10.98;;;10.60;94.10;;;;;;5078688;28;20082;-92
2022/03/27 05:35:15;;;;;;;17.60;10.45;;;10.60;94.00;;;;;;5060119;28;20384;-93
2022/03/27 05:37:42;;;;;;;14.63;9.65;;;10.50;93.80;;;;;;5076294;28;20115;-93
2022/03/27 05:40:10;;;;;;;15.20;10.27;;;10.50;93.90;;;;;;5059337;28;20028;-93
2022/03/27 05:42:36;;;;;;;13.43;9.70;;;10.50;93.70;;;;;;5075906;28;20091;-94
2022/03/27 05:45:07;;;;;;;13.95;9.55;;;10.50;93.80;;;;;;5076032;28;20037;-93
2022/03/27 05:47:42;;;;;;;15.02;9.70;;;10.40;93.60;;;;;;5076229;28;20020;-94
2022/03/27 05:50:08;;;;;;;13.35;9.43;;;10.40;93.60;;;;;;5075886;28;20032;-94
2022/03/27 05:52:34;;;;;;;13.38;9.07;;;10.40;93.60;;;;;;5076798;28;20024;-93
2022/03/27 05:55:00;;;;;;;15.02;10.07;;;10.30;93.40;;;;;;5076753;28;20020;-92
2022/03/27 05:57:26;;;;;;;12.80;9.30;;;10.30;93.40;;;;;;5058402;28;20028;-93
2022/03/27 05:59:51;;;;;;;13.25;9.30;;;10.30;93.30;;;;;;5074539;28;20051;-90
2022/03/27 06:02:17;;;;;;;13.55;9.43;;;10.20;93.10;;;;;;5076243;28;20052;-91
2022/03/27 06:04:45;;;;;;;13.85;9.93;;;10.20;93.40;;;;;;5075423;28;20029;-91
2022/03/27 06:07:11;;;;;;;16.42;10.27;;;10.20;93.50;;;;;;5059385;28;20038;-91
2022/03/27 06:09:37;;;;;;;15.35;9.82;;;10.20;93.40;;;;;;5075501;28;20107;-89
2022/03/27 06:12:04;;;;;;;15.02;9.73;;;10.10;93.40;;;;;;5073996;28;20453;-91
2022/03/27 06:14:30;;;;;;;15.23;10.10;;;10.10;93.40;;;;;;5075382;28;20027;-91
2022/03/27 06:16:57;;;;;;;14.57;10.43;;;10.10;93.50;;;;;;5076164;28;20032;-92
2022/03/27 06:19:22;;;;;;;15.57;9.95;;;10.10;93.50;;;;;;5075782;28;20376;-93
2022/03/27 06:21:48;;;;;;;15.13;10.57;;;10.00;93.80;;;;;;5075321;28;20024;-92
2022/03/27 06:24:14;;;;;;;15.40;10.02;;;10.00;94.00;;;;;;5075075;28;20021;-91
2022/03/27 06:26:40;;;;;;;17.27;10.13;;;10.00;93.70;;;;;;5074723;28;20035;-90
2022/03/27 06:29:07;;;;;;;15.57;10.77;;;10.00;93.80;;;;;;5075041;28;20016;-92
2022/03/27 06:31:33;;;;;;;16.20;10.77;;;10.00;93.90;;;;;;5058487;28;20362;-91
2022/03/27 06:33:59;;;;;;;17.50;11.35;;;10.00;94.00;;;;;;5058537;28;20240;-93
2022/03/27 06:36:24;;;;;;;17.45;11.35;;;10.00;94.10;;;;;;5075320;28;20369;-92
2022/03/27 06:38:50;;;;;;;17.58;10.95;;;10.00;94.20;;;;;;5075171;28;20075;-92
2022/03/27 06:41:19;;;;;;;17.10;10.77;;;10.00;94.30;;;;;;5059275;28;20043;-91
2022/03/27 06:43:44;;;;;;;15.02;10.18;;;10.10;94.30;;;;;;5075154;28;20031;-93
2022/03/27 06:46:15;;;;;;;15.98;10.40;;;10.10;94.10;;;;;;5058844;28;20029;-92
2022/03/27 06:48:40;;;;;;;14.93;10.38;;;10.00;94.10;;;;;;5075046;28;20027;-93
2022/03/27 06:51:06;;;;;;;15.57;10.82;;;10.00;94.10;;;;;;5075236;28;20021;-91
2022/03/27 06:53:32;;;;;;;16.33;10.32;;;10.00;93.80;;;;;;5074976;28;20074;-91
2022/03/27 06:55:58;;;;;;;15.25;10.27;;;10.00;93.70;;;;;;5074645;28;20090;-93
2022/03/27 06:58:24;;;;;;;17.60;10.52;;;10.00;93.80;;;;;;5075109;28;20044;-93
2022/03/27 07:03:36;;;;;;;15.88;10.75;;;10.00;93.80;;;;;;5076140;28;20040;-91
2022/03/27 07:06:02;;;;;;;17.95;12.40;;;10.00;93.50;;;;;;5057529;28;20024;-91
2022/03/27 07:08:28;;;;;;;19.52;12.70;;;9.90;93.40;;;;;;5057501;28;20222;-93
2022/03/27 07:10:53;;;;;;;18.10;12.13;;;9.90;93.70;;;;;;5079114;28;20029;-94
2022/03/27 07:13:20;;;;;;;19.92;12.13;;;9.90;93.70;;;;;;5080522;28;20024;-93
2022/03/27 07:15:49;;;;;;;17.30;11.48;;;9.90;94.00;;;;;;5078760;28;20031;-91
2022/03/27 07:18:20;;;;;;;18.75;12.05;;;10.00;94.00;;;;;;5080555;28;20115;-93
2022/03/27 07:20:47;;;;;;;21.90;12.38;;;9.90;94.00;;;;;;5078543;28;20025;-90
2022/03/27 07:23:18;;;;;;;20.23;12.63;;;9.90;93.90;;;;;;5079379;28;20457;-92
2022/03/27 07:25:46;;;;;;;20.88;12.50;;;10.00;94.10;;;;;;5079726;28;20477;-91
2022/03/27 07:28:20;;;;;;;22.60;13.25;;;10.00;94.50;;;;;;5080836;28;20175;-90
2022/03/27 07:30:47;;;;;;;23.70;12.27;;;10.00;94.40;;;;;;5080606;28;20021;-91
2022/03/27 07:33:16;;;;;;;22.05;12.30;;;10.10;94.00;;;;;;5079359;28;20020;-91
2022/03/27 07:35:44;;;;;;;22.17;12.63;;;10.10;94.00;;;;;;5064399;28;20021;-92
2022/03/27 07:38:10;;;;;;;20.52;12.40;;;10.10;93.90;;;;;;5080180;28;20032;-92
2022/03/27 07:40:36;;;;;;;21.00;12.48;;;10.10;93.70;;;;;;5062261;28;20028;-91
2022/03/27 07:43:02;;;;;;;20.88;12.15;;;10.10;93.50;;;;;;5062335;28;20031;-92
2022/03/27 07:45:31;;;;;;;20.65;12.85;;;10.10;93.80;;;;;;5078888;28;20120;-92
2022/03/27 07:47:57;;;;;;;21.17;12.70;;;10.20;93.70;;;;;;5078593;28;20029;-92
2022/03/27 07:50:25;;;;;;;19.85;11.05;;;10.20;93.70;;;;;;5078917;28;20457;-91
2022/03/27 07:52:51;;;;;;;18.38;12.05;;;10.20;93.70;;;;;;5078242;28;20024;-92
2022/03/27 07:55:18;;;;;;;20.25;11.82;;;10.30;93.60;;;;;;5062022;28;20032;-93
2022/03/27 07:57:44;;;;;;;19.63;11.73;;;10.30;93.70;;;;;;5078645;28;20092;-92
2022/03/27 08:00:14;;;;;;;19.80;12.57;;;10.30;93.40;;;;;;5078787;28;20052;-92
2022/03/27 08:02:42;;;;;;;22.23;12.93;;;10.30;93.30;;;;;;5078401;28;20016;-92
2022/03/27 08:05:08;;;;;;;18.85;12.20;;;10.40;93.30;;;;;;5078693;28;20047;-92
2022/03/27 08:07:34;;;;;;;21.40;12.55;;;10.40;93.60;;;;;;5078334;28;20038;-92
2022/03/27 08:10:01;;;;;;;20.98;12.20;;;10.50;93.60;;;;;;5078238;28;20039;-92
2022/03/27 08:12:36;;;;;;;19.20;11.90;;;10.50;93.50;;;;;;5081159;28;20066;-92
2022/03/27 08:15:05;;;;;;;18.17;11.98;;;10.60;93.40;;;;;;5093942;28;20029;-91
2022/03/27 08:17:34;;;;;;;18.70;12.25;;;10.60;93.00;;;;;;5095351;28;20032;-94
2022/03/27 08:20:00;;;;;;;18.33;12.27;;;10.70;93.00;;;;;;5094401;28;20104;-92
2022/03/27 08:22:26;;;;;;;20.67;12.70;;;10.70;93.10;;;;;;5094543;28;20055;-92
2022/03/27 08:24:52;;;;;;;19.20;12.27;;;10.80;92.70;;;;;;5093934;28;20020;-91
2022/03/27 08:27:20;;;;;;;20.73;12.82;;;10.80;92.70;;;;;;5098326;28;20043;-90
2022/03/27 08:29:48;;;;;;;23.23;12.30;;;10.90;92.50;;;;;;5100518;28;20376;-91
2022/03/27 08:32:16;;;;;;;24.02;12.38;;;10.90;92.30;;;;;;5082783;28;20035;-91
2022/03/27 08:34:47;;;;;;;22.67;13.18;;;10.90;92.40;;;;;;5098909;28;20012;-91
2022/03/27 08:37:21;;;;;;;;;;;11.00;92.30;;;;;;5075546;28;20393;-93
2022/03/27 08:39:58;;;;;;;20.95;12.07;;;11.10;92.40;;;;;;5079144;28;19935;-92
2022/03/27 08:42:24;;;;;;;20.00;13.13;;;11.10;91.80;;;;;;5077614;28;20017;-92
2022/03/27 08:44:50;;;;;;;22.38;13.25;;;11.10;92.00;;;;;;5077256;28;20055;-91
2022/03/27 08:47:19;;;;;;;19.48;12.57;;;11.20;92.10;;;;;;5077248;28;20039;-92
2022/03/27 08:50:12;;;;;;;20.67;12.70;;;11.30;92.00;;;;;;5077083;28;20031;-93
2022/03/27 08:53:13;;;;;;;21.05;12.70;;;11.30;91.70;;;;;;5077526;28;20047;-92
2022/03/27 08:55:55;;;;;;;23.17;13.18;;;11.40;91.40;;;;;;5076862;28;20047;-93
2022/03/27 08:58:25;;;;;;;18.50;11.65;;;11.50;91.40;;;;;;5077517;28;20028;-93
2022/03/27 09:00:51;;;;;;;23.52;12.32;;;11.60;91.20;;;;;;5077534;28;20127;-93
2022/03/27 09:03:20;;;;;;;23.10;14.20;;;11.60;91.30;;;;;;5060002;28;20056;-92
2022/03/27 09:05:46;;;;;;;21.13;13.60;;;11.70;91.00;;;;;;5061107;28;20480;-92
2022/03/27 09:08:12;;;;;;;21.25;13.73;;;11.80;90.80;;;;;;5061712;28;20062;-95
2022/03/27 09:10:40;;;;;;;19.92;12.32;;;11.90;90.70;;;;;;5063066;28;20449;-92
2022/03/27 09:13:11;;;;;;;17.23;11.93;;;12.00;90.50;;;;;;5078986;28;20020;-92
2022/03/27 09:15:45;;;;;;;20.05;12.88;;;12.00;90.00;;;;;;5078806;28;20031;-92
2022/03/27 09:18:13;;;;;;;18.92;12.77;;;12.10;89.40;;;;;;5079169;28;20025;-94
2022/03/27 09:20:42;;;;;;;18.73;12.32;;;12.20;89.60;;;;;;5061163;28;20060;-91
2022/03/27 09:23:22;;;;;;;21.83;12.57;;;12.20;89.90;;;;;;5076617;28;20028;-92
2022/03/27 09:25:58;;;;;;;21.63;12.43;;;12.30;88.70;;;;;;5077140;28;20020;-92
2022/03/27 09:28:26;;;;;;;18.38;12.27;;;12.40;88.00;;;;;;5077208;28;20028;-93
2022/03/27 09:30:52;;;;;;;19.85;12.50;;;12.50;87.90;;;;;;5080570;28;20024;-91
2022/03/27 09:33:46;;;;;;;20.55;12.98;;;12.60;88.30;;;;;;5076423;28;20209;-91
2022/03/27 09:36:25;;;;;;;18.52;12.13;;;12.70;87.00;;;;;;5077352;28;20017;-92
2022/03/27 09:39:16;;;;;;;18.50;12.73;;;12.80;87.50;;;;;;5076676;28;20070;-93
2022/03/27 09:41:52;;;;;;;;;;;13.00;85.90;;;;;;5076168;28;20025;-92
2022/03/27 09:44:23;;;;;;;17.35;12.18;;;13.00;85.50;;;;;;5076572;28;19955;-90
2022/03/27 09:47:01;;;;;;;17.45;12.52;;;13.10;85.80;;;;;;5060137;28;20056;-94
2022/03/27 09:49:37;;;;;;;19.40;12.52;;;13.20;85.30;;;;;;5078548;28;20046;-95
2022/03/27 09:52:16;;;;;;;19.77;11.88;;;13.40;85.00;;;;;;5078046;28;20029;-94
2022/03/27 09:55:19;;;;;;;18.05;12.57;;;13.50;84.40;;;;;;5079133;28;20127;-91
2022/03/27 09:57:57;;;;;;;17.02;11.50;;;13.60;83.90;;;;;;5085904;28;20090;-93
2022/03/27 10:00:35;;;;;;;18.42;12.48;;;13.70;83.20;;;;;;5076443;28;20048;-92
2022/03/27 10:03:09;;;;;;;18.45;12.68;;;13.90;83.00;;;;;;5076054;28;20033;-90
2022/03/27 10:05:38;;;;;;;19.40;13.10;;;14.00;81.00;;;;;;5076524;28;20066;-93
2022/03/27 10:08:05;;;;;;;16.70;11.77;;;14.10;81.20;;;;;;5058777;28;20032;-92
2022/03/27 10:10:30;;;;;;;16.23;12.50;;;14.20;80.60;;;;;;5076716;28;20025;-91
2022/03/27 10:13:01;;;;;;;17.98;12.88;;;14.30;79.90;;;;;;5059811;28;20226;-93
2022/03/27 10:15:31;;;;;;;20.13;13.13;;;14.40;79.70;;;;;;5080292;28;20080;-94
2022/03/27 10:18:13;;;;;;;19.33;12.68;;;14.50;78.90;;;;;;5082250;28;20052;-94
2022/03/27 10:20:45;;;;;;;18.02;12.38;;;14.60;77.60;;;;;;5082599;28;20025;-92
2022/03/27 10:23:20;;;;;;;20.08;11.93;;;14.70;77.60;;;;;;5077620;28;20048;-95
2022/03/27 10:25:53;;;;;;;16.15;11.48;;;14.80;77.30;;;;;;5078205;28;20021;-95
2022/03/27 10:28:19;;;;;;;15.45;10.65;;;14.90;77.00;;;;;;5077314;28;20450;-94
2022/03/27 10:30:48;;;;;;;17.92;11.75;;;15.00;76.90;;;;;;5076808;28;20025;-95
2022/03/27 10:33:15;;;;;;;17.52;10.50;;;15.10;75.60;;;;;;5078157;28;20021;-95
2022/03/27 10:36:21;;;;;;;16.98;11.65;;;15.30;75.70;;;;;;5077826;28;20020;-96
2022/03/27 10:39:12;;;;;;;15.38;10.65;;;15.40;74.00;;;;;;5076070;28;20044;-94
2022/03/27 10:42:02;;;;;;;14.73;10.13;;;15.50;74.30;;;;;;5076442;28;20054;-95
2022/03/27 10:44:45;;;;;;;18.58;11.35;;;15.60;73.30;;;;;;5079291;28;20029;-96
2022/03/27 10:47:19;;;;;;;17.83;11.80;;;15.70;71.70;;;;;;5080622;28;20024;-91
2022/03/27 10:50:09;;;;;;;16.92;10.93;;;15.80;71.50;;;;;;5077863;28;20017;-90
2022/03/27 10:52:39;;;;;;;15.77;10.93;;;15.90;71.10;;;;;;5079542;28;20043;-95
2022/03/27 10:55:09;;;;;;;16.60;10.95;;;16.00;69.80;;;;;;5076876;28;20028;-94
2022/03/27 10:57:51;;;;;;;16.15;11.45;;;16.10;70.00;;;;;;5074949;28;20025;-94
2022/03/27 11:00:37;;;;;;;15.60;10.43;;;16.20;68.80;;;;;;5075501;28;20124;-94
2022/03/27 11:03:03;;;;;;;14.13;9.73;;;16.20;69.20;;;;;;5078691;28;20031;-95
2022/03/27 11:05:30;;;;;;;15.52;9.60;;;16.30;68.50;;;;;;5077517;28;20028;-93
2022/03/27 11:08:17;;;;;;;15.02;9.43;;;16.40;67.80;;;;;;5155537;23;20056;-86
2022/03/27 11:10:59;;;;;;;13.60;8.73;;;16.50;67.60;;;;;;5109583;28;20065;-86
2022/03/27 11:13:45;;;;;;;13.82;9.20;;;16.60;65.60;;;;;;5114099;28;20028;-86
2022/03/27 11:16:24;;;;;;;15.13;9.70;;;16.70;66.80;;;;;;5113719;28;20160;-87
2022/03/27 11:18:51;;;;;;;13.50;8.98;;;16.80;66.70;;;;;;5111124;28;20044;-87
2022/03/27 11:21:29;;;;;;;15.63;9.98;;;16.90;65.50;;;;;;5096565;28;20035;-87
2022/03/27 11:24:18;;;;;;;14.38;8.95;;;17.00;65.50;;;;;;5113531;28;20027;-88
2022/03/27 11:26:53;;;;;;;14.15;9.43;;;17.10;66.00;;;;;;5114641;28;20024;-87
2022/03/27 11:29:22;;;;;;;14.80;9.35;;;17.20;64.10;;;;;;5111170;28;20029;-87
2022/03/27 11:32:07;;;;;;;13.50;9.00;;;17.30;63.30;;;;;;5114776;28;20011;-87
2022/03/27 11:34:34;;;;;;;13.30;8.13;;;17.40;63.10;;;;;;5115999;28;20024;-87
2022/03/27 11:37:25;;;;;;;16.17;8.38;;;17.40;62.80;;;;;;5116915;28;20032;-86
2022/03/27 11:40:48;;;;;;;13.05;8.80;;;17.50;61.50;;;;;;5096678;28;20050;-88
2022/03/27 11:43:36;;;;;;;11.00;7.10;;;17.60;62.30;;;;;;5096711;28;20021;-87
2022/03/27 11:46:03;;;;;;;13.48;8.35;;;17.70;60.80;;;;;;5098192;28;20024;-87
2022/03/27 11:48:29;;;;;;;13.23;8.00;;;17.70;59.80;;;;;;5112670;28;20051;-88
2022/03/27 11:51:02;;;;;;;13.45;8.60;;;17.80;60.10;;;;;;5098414;28;20019;-88
2022/03/27 11:53:37;;;;;;;15.90;8.23;;;17.90;61.10;;;;;;5106615;28;20039;-88
2022/03/27 11:56:09;;;;;;;15.38;8.93;;;17.90;58.70;;;;;;5110499;28;20039;-88
2022/03/27 11:58:37;;;;;;;11.10;7.57;;;18.00;58.80;;;;;;5114655;28;20043;-88
2022/03/27 12:01:11;;;;;;;13.63;7.50;;;18.10;59.10;;;;;;5115260;28;20303;-87
2022/03/27 12:04:33;;;;;;;14.40;7.50;;;18.20;59.00;;;;;;5115079;28;20035;-89
2022/03/27 12:07:02;;;;;;;10.38;6.65;;;18.30;57.60;;;;;;5098496;28;20025;-87
2022/03/27 12:09:29;;;;;;;17.23;7.35;;;18.40;58.70;;;;;;5095358;28;20059;-87
2022/03/27 12:12:15;;;;;;;12.75;7.13;;;18.40;57.70;;;;;;5095382;28;20008;-87
2022/03/27 12:15:11;;;;;;;9.77;7.25;;;18.50;57.20;;;;;;5079920;28;20020;-87
2022/03/27 12:17:45;;;;;;;13.75;7.50;;;18.60;57.70;;;;;;5088319;28;20375;-89
2022/03/27 12:20:12;;;;;;;12.85;7.45;;;18.70;58.10;;;;;;5077428;28;20078;-89
2022/03/27 12:22:45;;;;;;;11.27;6.70;;;18.80;56.50;;;;;;5076670;28;20028;-89
2022/03/27 12:25:20;;;;;;;11.05;6.97;;;18.90;56.70;;;;;;5060526;28;20021;-88
2022/03/27 12:30:46;;;;;;;12.57;7.33;;;19.00;57.00;;;;;;5078588;28;20039;-88
2022/03/27 12:33:12;;;;;;;12.73;7.03;;;19.20;56.30;;;;;;5076878;28;20028;-89
2022/03/27 12:35:39;;;;;;;11.40;7.00;;;19.30;55.90;;;;;;5076158;28;20016;-88
2022/03/27 12:38:05;;;;;;;11.90;6.78;;;19.40;55.20;;;;;;5060036;28;20060;-89
2022/03/27 12:40:45;;;;;;;11.65;6.60;;;19.40;54.50;;;;;;5079091;28;20385;-90
2022/03/27 12:43:15;;;;;;;11.23;7.20;;;19.50;55.40;;;;;;5077575;28;20035;-89
2022/03/27 12:45:42;;;;;;;9.70;6.65;;;19.50;54.30;;;;;;5078947;28;20025;-90
2022/03/27 12:48:16;;;;;;;12.77;6.82;;;19.60;54.20;;;;;;5066205;28;20036;-88
2022/03/27 12:54:12;;;;;;;11.18;6.75;;;19.70;53.60;;;;;;5111210;28;20034;-90
2022/03/27 12:56:57;;;;;;;10.98;6.80;;;19.80;53.40;;;;;;5093749;28;20020;-88
2022/03/27 12:59:23;;;;;;;9.38;5.30;;;19.80;52.40;;;;;;5114872;28;20024;-86